sensor_id;sensor_type;location;lat;lon;timestamp;P1;durP1;ratioP1;P2;durP2;ratioP2
45548;SDS011;31270;48.328;10.096;2022-10-04T00:01:04;18.37;;;12.47;;
45548;SDS011;31270;48.328;10.096;2022-10-04T00:03:52;19.07;;;12.60;;
45548;SDS011;31270;48.328;10.096;2022-10-04T00:06:33;26.77;;;13.83;;
45548;SDS011;31270;48.328;10.096;2022-10-04T00:09:10;20.23;;;14.73;;
45548;SDS011;31270;48.328;10.096;2022-10-04T00:11:44;21.80;;;14.67;;
45548;SDS011;31270;48.328;10.096;2022-10-04T00:14:15;21.83;;;15.90;;
45548;SDS011;31270;48.328;10.096;2022-10-04T00:16:54;26.53;;;15.73;;
45548;SDS011;31270;48.328;10.096;2022-10-04T00:19:22;23.33;;;15.97;;
45548;SDS011;31270;48.328;10.096;2022-10-04T00:24:33;34.20;;;16.10;;
45548;SDS011;31270;48.328;10.096;2022-10-04T00:29:49;29.00;;;16.50;;
45548;SDS011;31270;48.328;10.096;2022-10-04T00:37:56;20.00;;;14.10;;
45548;SDS011;31270;48.328;10.096;2022-10-04T00:40:24;19.93;;;14.30;;
45548;SDS011;31270;48.328;10.096;2022-10-04T00:45:31;18.77;;;12.93;;
45548;SDS011;31270;48.328;10.096;2022-10-04T00:51:28;14.87;;;11.10;;
45548;SDS011;31270;48.328;10.096;2022-10-04T00:56:31;23.70;;;11.80;;
45548;SDS011;31270;48.328;10.096;2022-10-04T00:59:05;33.27;;;12.37;;
45548;SDS011;31270;48.328;10.096;2022-10-04T01:01:47;29.27;;;11.70;;
45548;SDS011;31270;48.328;10.096;2022-10-04T01:04:32;21.40;;;11.97;;
45548;SDS011;31270;48.328;10.096;2022-10-04T01:07:04;18.97;;;11.67;;
45548;SDS011;31270;48.328;10.096;2022-10-04T01:09:31;25.13;;;12.63;;
45548;SDS011;31270;48.328;10.096;2022-10-04T01:12:02;20.80;;;12.37;;
45548;SDS011;31270;48.328;10.096;2022-10-04T01:17:07;25.73;;;11.03;;
45548;SDS011;31270;48.328;10.096;2022-10-04T01:19:34;40.93;;;11.43;;
45548;SDS011;31270;48.328;10.096;2022-10-04T01:22:02;29.10;;;10.73;;
45548;SDS011;31270;48.328;10.096;2022-10-04T01:24:39;15.93;;;9.43;;
45548;SDS011;31270;48.328;10.096;2022-10-04T01:30:14;12.77;;;8.87;;
45548;SDS011;31270;48.328;10.096;2022-10-04T01:32:41;14.57;;;8.90;;
45548;SDS011;31270;48.328;10.096;2022-10-04T01:35:08;11.43;;;8.23;;
45548;SDS011;31270;48.328;10.096;2022-10-04T01:37:36;13.43;;;8.50;;
45548;SDS011;31270;48.328;10.096;2022-10-04T01:40:03;19.10;;;8.13;;
45548;SDS011;31270;48.328;10.096;2022-10-04T01:47:46;19.27;;;8.40;;
45548;SDS011;31270;48.328;10.096;2022-10-04T01:50:19;11.77;;;8.17;;
45548;SDS011;31270;48.328;10.096;2022-10-04T01:53:18;18.00;;;9.57;;
45548;SDS011;31270;48.328;10.096;2022-10-04T01:55:52;10.60;;;8.40;;
45548;SDS011;31270;48.328;10.096;2022-10-04T01:58:25;12.73;;;8.20;;
45548;SDS011;31270;48.328;10.096;2022-10-04T02:00:59;14.77;;;9.03;;
45548;SDS011;31270;48.328;10.096;2022-10-04T02:03:34;11.87;;;8.23;;
45548;SDS011;31270;48.328;10.096;2022-10-04T02:06:07;11.03;;;8.50;;
45548;SDS011;31270;48.328;10.096;2022-10-04T02:08:35;35.60;;;8.77;;
45548;SDS011;31270;48.328;10.096;2022-10-04T02:11:04;12.90;;;8.97;;
45548;SDS011;31270;48.328;10.096;2022-10-04T02:13:37;13.67;;;8.97;;
45548;SDS011;31270;48.328;10.096;2022-10-04T02:16:09;12.13;;;8.53;;
45548;SDS011;31270;48.328;10.096;2022-10-04T02:18:36;35.17;;;10.83;;
45548;SDS011;31270;48.328;10.096;2022-10-04T02:21:04;16.40;;;10.27;;
45548;SDS011;31270;48.328;10.096;2022-10-04T02:23:31;43.00;;;10.77;;
45548;SDS011;31270;48.328;10.096;2022-10-04T02:26:03;35.10;;;10.90;;
45548;SDS011;31270;48.328;10.096;2022-10-04T02:28:30;44.87;;;10.93;;
45548;SDS011;31270;48.328;10.096;2022-10-04T02:30:57;34.60;;;10.47;;
45548;SDS011;31270;48.328;10.096;2022-10-04T02:33:44;45.33;;;9.80;;
45548;SDS011;31270;48.328;10.096;2022-10-04T02:36:12;34.03;;;10.33;;
45548;SDS011;31270;48.328;10.096;2022-10-04T02:38:44;15.80;;;9.90;;
45548;SDS011;31270;48.328;10.096;2022-10-04T02:41:34;43.23;;;10.50;;
45548;SDS011;31270;48.328;10.096;2022-10-04T02:44:12;54.43;;;10.23;;
45548;SDS011;31270;48.328;10.096;2022-10-04T02:46:55;32.53;;;10.33;;
45548;SDS011;31270;48.328;10.096;2022-10-04T02:52:10;24.77;;;9.77;;
45548;SDS011;31270;48.328;10.096;2022-10-04T02:54:45;25.93;;;9.60;;
45548;SDS011;31270;48.328;10.096;2022-10-04T02:57:18;32.47;;;9.67;;
45548;SDS011;31270;48.328;10.096;2022-10-04T02:59:45;27.27;;;9.07;;
45548;SDS011;31270;48.328;10.096;2022-10-04T03:04:48;20.23;;;8.97;;
45548;SDS011;31270;48.328;10.096;2022-10-04T03:07:16;27.23;;;8.83;;
45548;SDS011;31270;48.328;10.096;2022-10-04T03:09:43;26.30;;;8.97;;
45548;SDS011;31270;48.328;10.096;2022-10-04T03:12:09;21.90;;;8.53;;
45548;SDS011;31270;48.328;10.096;2022-10-04T03:14:36;29.73;;;8.83;;
45548;SDS011;31270;48.328;10.096;2022-10-04T03:17:03;21.60;;;9.33;;
45548;SDS011;31270;48.328;10.096;2022-10-04T03:19:30;28.20;;;9.30;;
45548;SDS011;31270;48.328;10.096;2022-10-04T03:22:01;31.87;;;8.40;;
45548;SDS011;31270;48.328;10.096;2022-10-04T03:24:49;34.10;;;9.30;;
45548;SDS011;31270;48.328;10.096;2022-10-04T03:27:21;31.40;;;9.27;;
45548;SDS011;31270;48.328;10.096;2022-10-04T03:29:58;23.37;;;9.00;;
45548;SDS011;31270;48.328;10.096;2022-10-04T03:32:26;20.90;;;8.37;;
45548;SDS011;31270;48.328;10.096;2022-10-04T03:34:55;20.60;;;8.63;;
45548;SDS011;31270;48.328;10.096;2022-10-04T03:37:23;23.53;;;9.77;;
45548;SDS011;31270;48.328;10.096;2022-10-04T03:39:51;23.10;;;9.77;;
45548;SDS011;31270;48.328;10.096;2022-10-04T03:42:19;27.67;;;9.37;;
45548;SDS011;31270;48.328;10.096;2022-10-04T03:44:51;37.30;;;8.57;;
45548;SDS011;31270;48.328;10.096;2022-10-04T03:47:21;27.43;;;9.17;;
45548;SDS011;31270;48.328;10.096;2022-10-04T03:49:47;18.93;;;8.87;;
45548;SDS011;31270;48.328;10.096;2022-10-04T03:52:17;20.27;;;9.83;;
45548;SDS011;31270;48.328;10.096;2022-10-04T03:54:48;27.40;;;9.40;;
45548;SDS011;31270;48.328;10.096;2022-10-04T03:57:17;20.73;;;9.10;;
45548;SDS011;31270;48.328;10.096;2022-10-04T03:59:43;20.83;;;8.93;;
45548;SDS011;31270;48.328;10.096;2022-10-04T04:10:49;25.37;;;9.00;;
45548;SDS011;31270;48.328;10.096;2022-10-04T04:13:24;15.57;;;8.60;;
45548;SDS011;31270;48.328;10.096;2022-10-04T04:15:59;22.80;;;8.40;;
45548;SDS011;31270;48.328;10.096;2022-10-04T04:18:27;15.00;;;8.50;;
45548;SDS011;31270;48.328;10.096;2022-10-04T04:21:01;16.47;;;8.27;;
45548;SDS011;31270;48.328;10.096;2022-10-04T04:23:33;18.27;;;8.90;;
45548;SDS011;31270;48.328;10.096;2022-10-04T04:26:17;27.70;;;8.70;;
45548;SDS011;31270;48.328;10.096;2022-10-04T04:28:55;15.30;;;8.00;;
45548;SDS011;31270;48.328;10.096;2022-10-04T04:31:32;12.00;;;8.33;;
45548;SDS011;31270;48.328;10.096;2022-10-04T04:34:03;22.87;;;8.30;;
45548;SDS011;31270;48.328;10.096;2022-10-04T04:36:39;24.17;;;8.63;;
45548;SDS011;31270;48.328;10.096;2022-10-04T04:39:13;17.23;;;9.03;;
45548;SDS011;31270;48.328;10.096;2022-10-04T04:42:01;10.63;;;8.07;;
45548;SDS011;31270;48.328;10.096;2022-10-04T04:44:49;11.47;;;8.97;;
45548;SDS011;31270;48.328;10.096;2022-10-04T04:47:32;16.27;;;9.77;;
45548;SDS011;31270;48.328;10.096;2022-10-04T04:50:10;23.83;;;8.53;;
45548;SDS011;31270;48.328;10.096;2022-10-04T04:52:43;22.90;;;8.27;;
45548;SDS011;31270;48.328;10.096;2022-10-04T04:55:19;23.10;;;8.43;;
45548;SDS011;31270;48.328;10.096;2022-10-04T04:57:51;22.43;;;8.60;;
45548;SDS011;31270;48.328;10.096;2022-10-04T05:00:21;196.50;;;14.30;;
45548;SDS011;31270;48.328;10.096;2022-10-04T05:02:56;17.30;;;8.70;;
45548;SDS011;31270;48.328;10.096;2022-10-04T05:13:27;49.73;;;8.63;;
45548;SDS011;31270;48.328;10.096;2022-10-04T05:15:58;26.20;;;8.90;;
45548;SDS011;31270;48.328;10.096;2022-10-04T05:18:29;40.03;;;9.17;;
45548;SDS011;31270;48.328;10.096;2022-10-04T05:21:19;34.13;;;9.33;;
45548;SDS011;31270;48.328;10.096;2022-10-04T05:23:50;19.63;;;7.93;;
45548;SDS011;31270;48.328;10.096;2022-10-04T05:26:19;26.57;;;8.57;;
45548;SDS011;31270;48.328;10.096;2022-10-04T05:28:51;38.83;;;8.77;;
45548;SDS011;31270;48.328;10.096;2022-10-04T05:33:53;32.90;;;13.60;;
45548;SDS011;31270;48.328;10.096;2022-10-04T05:41:57;38.50;;;8.70;;
45548;SDS011;31270;48.328;10.096;2022-10-04T05:44:53;37.27;;;8.37;;
45548;SDS011;31270;48.328;10.096;2022-10-04T05:47:21;61.80;;;9.57;;
45548;SDS011;31270;48.328;10.096;2022-10-04T05:49:55;35.77;;;9.30;;
45548;SDS011;31270;48.328;10.096;2022-10-04T05:52:30;43.43;;;9.67;;
45548;SDS011;31270;48.328;10.096;2022-10-04T06:11:29;52.03;;;8.30;;
45548;SDS011;31270;48.328;10.096;2022-10-04T06:14:20;40.40;;;8.67;;
45548;SDS011;31270;48.328;10.096;2022-10-04T06:22:26;30.63;;;8.97;;
45548;SDS011;31270;48.328;10.096;2022-10-04T06:25:12;44.10;;;9.80;;
45548;SDS011;31270;48.328;10.096;2022-10-04T06:30:41;43.70;;;8.70;;
45548;SDS011;31270;48.328;10.096;2022-10-04T06:36:27;37.67;;;9.07;;
45548;SDS011;31270;48.328;10.096;2022-10-04T06:39:11;39.60;;;7.63;;
45548;SDS011;31270;48.328;10.096;2022-10-04T06:42:16;66.53;;;12.77;;
45548;SDS011;31270;48.328;10.096;2022-10-04T06:56:59;80.93;;;8.77;;
45548;SDS011;31270;48.328;10.096;2022-10-04T07:02:42;68.40;;;8.47;;
45548;SDS011;31270;48.328;10.096;2022-10-04T07:05:17;68.83;;;8.40;;
45548;SDS011;31270;48.328;10.096;2022-10-04T07:07:56;62.43;;;8.00;;
45548;SDS011;31270;48.328;10.096;2022-10-04T07:10:32;78.83;;;8.97;;
45548;SDS011;31270;48.328;10.096;2022-10-04T07:13:09;81.93;;;9.37;;
45548;SDS011;31270;48.328;10.096;2022-10-04T07:15:55;57.40;;;8.97;;
45548;SDS011;31270;48.328;10.096;2022-10-04T07:21:26;61.10;;;8.47;;
45548;SDS011;31270;48.328;10.096;2022-10-04T07:24:04;233.30;;;12.90;;
45548;SDS011;31270;48.328;10.096;2022-10-04T07:26:37;135.77;;;10.27;;
45548;SDS011;31270;48.328;10.096;2022-10-04T07:29:15;43.00;;;8.10;;
45548;SDS011;31270;48.328;10.096;2022-10-04T07:37:21;102.07;;;9.97;;
45548;SDS011;31270;48.328;10.096;2022-10-04T07:39:57;46.20;;;9.33;;
45548;SDS011;31270;48.328;10.096;2022-10-04T07:42:46;52.43;;;9.50;;
45548;SDS011;31270;48.328;10.096;2022-10-04T07:47:46;83.73;;;10.03;;
45548;SDS011;31270;48.328;10.096;2022-10-04T07:50:34;74.07;;;8.83;;
45548;SDS011;31270;48.328;10.096;2022-10-04T07:53:07;157.47;;;12.20;;
45548;SDS011;31270;48.328;10.096;2022-10-04T07:55:48;40.83;;;8.37;;
45548;SDS011;31270;48.328;10.096;2022-10-04T08:01:39;19.33;;;8.90;;
45548;SDS011;31270;48.328;10.096;2022-10-04T08:07:19;62.77;;;9.40;;
45548;SDS011;31270;48.328;10.096;2022-10-04T08:12:28;13.43;;;8.73;;
45548;SDS011;31270;48.328;10.096;2022-10-04T08:15:09;20.70;;;8.60;;
45548;SDS011;31270;48.328;10.096;2022-10-04T08:21:00;21.03;;;8.40;;
45548;SDS011;31270;48.328;10.096;2022-10-04T08:32:06;14.90;;;8.50;;
45548;SDS011;31270;48.328;10.096;2022-10-04T09:14:14;11.43;;;9.57;;
45548;SDS011;31270;48.328;10.096;2022-10-04T09:24:38;14.10;;;9.70;;
45548;SDS011;31270;48.328;10.096;2022-10-04T09:30:18;14.60;;;9.33;;
45548;SDS011;31270;48.328;10.096;2022-10-04T09:47:28;9.70;;;8.60;;
45548;SDS011;31270;48.328;10.096;2022-10-04T10:01:16;11.37;;;8.90;;
45548;SDS011;31270;48.328;10.096;2022-10-04T10:09:58;12.83;;;9.27;;
45548;SDS011;31270;48.328;10.096;2022-10-04T10:30:02;11.13;;;8.18;;
45548;SDS011;31270;48.328;10.096;2022-10-04T10:33:01;12.10;;;9.15;;
45548;SDS011;31270;48.328;10.096;2022-10-04T10:38:49;11.23;;;8.20;;
45548;SDS011;31270;48.328;10.096;2022-10-04T10:41:34;10.27;;;8.43;;
45548;SDS011;31270;48.328;10.096;2022-10-04T11:04:49;9.18;;;6.90;;
45548;SDS011;31270;48.328;10.096;2022-10-04T11:12:37;8.18;;;6.97;;
45548;SDS011;31270;48.328;10.096;2022-10-04T11:27:40;10.85;;;6.97;;
45548;SDS011;31270;48.328;10.096;2022-10-04T11:30:24;8.25;;;6.90;;
45548;SDS011;31270;48.328;10.096;2022-10-04T11:33:07;9.55;;;6.75;;
45548;SDS011;31270;48.328;10.096;2022-10-04T11:38:50;8.88;;;6.72;;
45548;SDS011;31270;48.328;10.096;2022-10-04T11:42:00;9.38;;;7.00;;
45548;SDS011;31270;48.328;10.096;2022-10-04T11:50:34;8.35;;;6.70;;
45548;SDS011;31270;48.328;10.096;2022-10-04T11:59:04;9.20;;;6.22;;
45548;SDS011;31270;48.328;10.096;2022-10-04T12:08:01;9.82;;;6.07;;
45548;SDS011;31270;48.328;10.096;2022-10-04T12:13:47;11.00;;;6.70;;
45548;SDS011;31270;48.328;10.096;2022-10-04T12:38:32;5.15;;;4.57;;
45548;SDS011;31270;48.328;10.096;2022-10-04T12:46:51;4.75;;;4.25;;
45548;SDS011;31270;48.328;10.096;2022-10-04T12:49:28;9.75;;;4.57;;
45548;SDS011;31270;48.328;10.096;2022-10-04T12:52:16;4.65;;;4.22;;
45548;SDS011;31270;48.328;10.096;2022-10-04T12:57:49;5.63;;;4.10;;
45548;SDS011;31270;48.328;10.096;2022-10-04T13:00:23;4.88;;;4.30;;
45548;SDS011;31270;48.328;10.096;2022-10-04T13:03:13;5.18;;;4.35;;
45548;SDS011;31270;48.328;10.096;2022-10-04T13:06:21;6.22;;;4.35;;
45548;SDS011;31270;48.328;10.096;2022-10-04T13:09:13;5.22;;;3.40;;
45548;SDS011;31270;48.328;10.096;2022-10-04T13:28:16;5.30;;;4.80;;
45548;SDS011;31270;48.328;10.096;2022-10-04T13:30:58;7.20;;;4.65;;
45548;SDS011;31270;48.328;10.096;2022-10-04T13:33:42;5.25;;;4.65;;
45548;SDS011;31270;48.328;10.096;2022-10-04T13:47:22;5.20;;;4.60;;
45548;SDS011;31270;48.328;10.096;2022-10-04T13:52:42;8.57;;;4.75;;
45548;SDS011;31270;48.328;10.096;2022-10-04T13:55:44;4.78;;;4.28;;
45548;SDS011;31270;48.328;10.096;2022-10-04T13:58:44;7.07;;;4.38;;
45548;SDS011;31270;48.328;10.096;2022-10-04T14:09:20;9.52;;;5.13;;
45548;SDS011;31270;48.328;10.096;2022-10-04T14:18:00;6.07;;;4.63;;
45548;SDS011;31270;48.328;10.096;2022-10-04T14:43:20;4.75;;;3.80;;
45548;SDS011;31270;48.328;10.096;2022-10-04T14:46:09;4.97;;;4.18;;
45548;SDS011;31270;48.328;10.096;2022-10-04T14:54:04;6.05;;;4.25;;
45548;SDS011;31270;48.328;10.096;2022-10-04T14:56:43;5.10;;;4.25;;
45548;SDS011;31270;48.328;10.096;2022-10-04T15:01:42;6.85;;;4.40;;
45548;SDS011;31270;48.328;10.096;2022-10-04T15:07:22;5.13;;;4.60;;
45548;SDS011;31270;48.328;10.096;2022-10-04T15:10:18;5.38;;;4.25;;
45548;SDS011;31270;48.328;10.096;2022-10-04T15:16:09;7.13;;;5.00;;
45548;SDS011;31270;48.328;10.096;2022-10-04T15:18:49;6.28;;;5.10;;
45548;SDS011;31270;48.328;10.096;2022-10-04T15:21:31;6.68;;;4.47;;
45548;SDS011;31270;48.328;10.096;2022-10-04T15:26:49;5.22;;;4.57;;
45548;SDS011;31270;48.328;10.096;2022-10-04T15:29:38;6.57;;;4.65;;
45548;SDS011;31270;48.328;10.096;2022-10-04T15:35:23;5.00;;;4.00;;
45548;SDS011;31270;48.328;10.096;2022-10-04T15:41:01;5.68;;;3.80;;
45548;SDS011;31270;48.328;10.096;2022-10-04T15:43:33;4.70;;;4.15;;
45548;SDS011;31270;48.328;10.096;2022-10-04T16:00:50;4.10;;;3.47;;
45548;SDS011;31270;48.328;10.096;2022-10-04T16:22:18;5.00;;;3.92;;
45548;SDS011;31270;48.328;10.096;2022-10-04T16:24:58;4.53;;;3.78;;
45548;SDS011;31270;48.328;10.096;2022-10-04T16:30:29;6.28;;;3.95;;
45548;SDS011;31270;48.328;10.096;2022-10-04T16:33:05;5.78;;;3.78;;
45548;SDS011;31270;48.328;10.096;2022-10-04T16:36:07;8.40;;;4.32;;
45548;SDS011;31270;48.328;10.096;2022-10-04T16:38:43;5.82;;;4.05;;
45548;SDS011;31270;48.328;10.096;2022-10-04T16:44:37;6.03;;;4.45;;
45548;SDS011;31270;48.328;10.096;2022-10-04T16:49:55;6.28;;;4.35;;
45548;SDS011;31270;48.328;10.096;2022-10-04T17:03:48;6.90;;;6.03;;
45548;SDS011;31270;48.328;10.096;2022-10-04T17:06:27;7.37;;;6.47;;
45548;SDS011;31270;48.328;10.096;2022-10-04T17:20:14;6.80;;;6.00;;
45548;SDS011;31270;48.328;10.096;2022-10-04T17:26:23;7.07;;;4.60;;
45548;SDS011;31270;48.328;10.096;2022-10-04T17:31:55;7.63;;;4.40;;
45548;SDS011;31270;48.328;10.096;2022-10-04T17:34:43;7.27;;;5.20;;
45548;SDS011;31270;48.328;10.096;2022-10-04T17:48:20;15.23;;;10.47;;
45548;SDS011;31270;48.328;10.096;2022-10-04T17:54:17;11.47;;;7.37;;
45548;SDS011;31270;48.328;10.096;2022-10-04T17:57:20;10.53;;;7.60;;
45548;SDS011;31270;48.328;10.096;2022-10-04T18:00:10;11.20;;;6.93;;
45548;SDS011;31270;48.328;10.096;2022-10-04T18:08:11;14.03;;;7.27;;
45548;SDS011;31270;48.328;10.096;2022-10-04T18:11:01;11.33;;;8.07;;
45548;SDS011;31270;48.328;10.096;2022-10-04T18:13:36;12.70;;;8.13;;
45548;SDS011;31270;48.328;10.096;2022-10-04T18:16:22;11.23;;;8.20;;
45548;SDS011;31270;48.328;10.096;2022-10-04T18:18:53;12.57;;;7.83;;
45548;SDS011;31270;48.328;10.096;2022-10-04T18:21:23;10.83;;;8.17;;
45548;SDS011;31270;48.328;10.096;2022-10-04T18:23:59;21.47;;;16.30;;
45548;SDS011;31270;48.328;10.096;2022-10-04T18:26:57;20.00;;;13.03;;
45548;SDS011;31270;48.328;10.096;2022-10-04T18:29:40;18.03;;;12.60;;
45548;SDS011;31270;48.328;10.096;2022-10-04T18:34:54;11.83;;;9.07;;
45548;SDS011;31270;48.328;10.096;2022-10-04T18:37:33;13.10;;;7.90;;
45548;SDS011;31270;48.328;10.096;2022-10-04T18:40:12;11.63;;;7.53;;
45548;SDS011;31270;48.328;10.096;2022-10-04T18:47:53;11.10;;;9.10;;
45548;SDS011;31270;48.328;10.096;2022-10-04T18:52:50;11.83;;;8.53;;
45548;SDS011;31270;48.328;10.096;2022-10-04T18:58:31;17.67;;;10.83;;
45548;SDS011;31270;48.328;10.096;2022-10-04T19:18:43;23.83;;;13.73;;
45548;SDS011;31270;48.328;10.096;2022-10-04T19:24:18;16.07;;;9.60;;
45548;SDS011;31270;48.328;10.096;2022-10-04T19:27:01;13.73;;;9.07;;
45548;SDS011;31270;48.328;10.096;2022-10-04T19:37:33;12.17;;;9.37;;
45548;SDS011;31270;48.328;10.096;2022-10-04T19:40:08;11.33;;;9.43;;
45548;SDS011;31270;48.328;10.096;2022-10-04T19:43:01;13.63;;;9.00;;
45548;SDS011;31270;48.328;10.096;2022-10-04T19:48:26;12.17;;;8.97;;
45548;SDS011;31270;48.328;10.096;2022-10-04T19:51:05;14.10;;;9.43;;
45548;SDS011;31270;48.328;10.096;2022-10-04T19:53:44;18.33;;;10.77;;
45548;SDS011;31270;48.328;10.096;2022-10-04T19:56:16;13.57;;;10.37;;
45548;SDS011;31270;48.328;10.096;2022-10-04T19:58:46;14.63;;;10.17;;
45548;SDS011;31270;48.328;10.096;2022-10-04T20:01:25;14.63;;;10.63;;
45548;SDS011;31270;48.328;10.096;2022-10-04T20:03:51;15.87;;;10.07;;
45548;SDS011;31270;48.328;10.096;2022-10-04T20:06:57;17.43;;;10.23;;
45548;SDS011;31270;48.328;10.096;2022-10-04T20:11:55;11.63;;;8.73;;
45548;SDS011;31270;48.328;10.096;2022-10-04T20:24:49;8.13;;;6.03;;
45548;SDS011;31270;48.328;10.096;2022-10-04T20:34:51;14.27;;;8.50;;
45548;SDS011;31270;48.328;10.096;2022-10-04T20:37:18;14.97;;;10.10;;
45548;SDS011;31270;48.328;10.096;2022-10-04T20:47:35;16.20;;;11.23;;
45548;SDS011;31270;48.328;10.096;2022-10-04T20:52:34;11.47;;;9.30;;
45548;SDS011;31270;48.328;10.096;2022-10-04T20:55:06;11.50;;;8.70;;
45548;SDS011;31270;48.328;10.096;2022-10-04T20:57:39;11.17;;;8.27;;
45548;SDS011;31270;48.328;10.096;2022-10-04T21:00:05;9.90;;;8.33;;
45548;SDS011;31270;48.328;10.096;2022-10-04T21:02:42;12.13;;;8.60;;
45548;SDS011;31270;48.328;10.096;2022-10-04T21:05:14;11.93;;;9.27;;
45548;SDS011;31270;48.328;10.096;2022-10-04T21:07:48;13.40;;;9.33;;
45548;SDS011;31270;48.328;10.096;2022-10-04T21:10:34;14.87;;;10.33;;
45548;SDS011;31270;48.328;10.096;2022-10-04T21:12:59;18.87;;;11.07;;
45548;SDS011;31270;48.328;10.096;2022-10-04T21:15:25;18.73;;;10.67;;
45548;SDS011;31270;48.328;10.096;2022-10-04T21:18:06;16.63;;;11.20;;
45548;SDS011;31270;48.328;10.096;2022-10-04T21:23:07;18.83;;;13.20;;
45548;SDS011;31270;48.328;10.096;2022-10-04T21:25:40;27.53;;;18.87;;
45548;SDS011;31270;48.328;10.096;2022-10-04T21:31:00;26.97;;;20.10;;
45548;SDS011;31270;48.328;10.096;2022-10-04T21:33:29;31.83;;;22.23;;
45548;SDS011;31270;48.328;10.096;2022-10-04T21:35:55;38.43;;;28.23;;
45548;SDS011;31270;48.328;10.096;2022-10-04T21:38:21;59.40;;;34.47;;
45548;SDS011;31270;48.328;10.096;2022-10-04T21:40:46;43.07;;;29.33;;
45548;SDS011;31270;48.328;10.096;2022-10-04T21:43:12;27.73;;;18.80;;
45548;SDS011;31270;48.328;10.096;2022-10-04T21:45:37;29.40;;;21.00;;
45548;SDS011;31270;48.328;10.096;2022-10-04T21:48:03;22.80;;;15.90;;
45548;SDS011;31270;48.328;10.096;2022-10-04T21:50:29;19.90;;;13.07;;
45548;SDS011;31270;48.328;10.096;2022-10-04T21:52:54;17.90;;;11.97;;
45548;SDS011;31270;48.328;10.096;2022-10-04T21:55:21;19.10;;;11.73;;
45548;SDS011;31270;48.328;10.096;2022-10-04T21:57:47;15.50;;;11.17;;
45548;SDS011;31270;48.328;10.096;2022-10-04T22:00:12;17.97;;;12.20;;
45548;SDS011;31270;48.328;10.096;2022-10-04T22:02:38;27.10;;;21.23;;
45548;SDS011;31270;48.328;10.096;2022-10-04T22:05:03;19.27;;;16.00;;
45548;SDS011;31270;48.328;10.096;2022-10-04T22:07:29;18.80;;;13.13;;
45548;SDS011;31270;48.328;10.096;2022-10-04T22:09:55;20.53;;;14.83;;
45548;SDS011;31270;48.328;10.096;2022-10-04T22:12:21;20.60;;;15.60;;
45548;SDS011;31270;48.328;10.096;2022-10-04T22:14:46;18.63;;;12.23;;
45548;SDS011;31270;48.328;10.096;2022-10-04T22:17:12;14.27;;;10.80;;
45548;SDS011;31270;48.328;10.096;2022-10-04T22:19:37;16.70;;;11.00;;
45548;SDS011;31270;48.328;10.096;2022-10-04T22:22:03;15.23;;;10.87;;
45548;SDS011;31270;48.328;10.096;2022-10-04T22:24:29;17.53;;;10.67;;
45548;SDS011;31270;48.328;10.096;2022-10-04T22:26:55;14.07;;;9.70;;
45548;SDS011;31270;48.328;10.096;2022-10-04T22:29:21;17.37;;;10.90;;
45548;SDS011;31270;48.328;10.096;2022-10-04T22:31:50;15.40;;;11.00;;
45548;SDS011;31270;48.328;10.096;2022-10-04T22:34:17;13.57;;;10.57;;
45548;SDS011;31270;48.328;10.096;2022-10-04T22:36:45;13.97;;;10.53;;
45548;SDS011;31270;48.328;10.096;2022-10-04T22:39:16;14.57;;;9.77;;
45548;SDS011;31270;48.328;10.096;2022-10-04T22:41:53;18.57;;;10.63;;
45548;SDS011;31270;48.328;10.096;2022-10-04T22:44:39;19.43;;;13.80;;
45548;SDS011;31270;48.328;10.096;2022-10-04T22:47:09;19.53;;;14.03;;
45548;SDS011;31270;48.328;10.096;2022-10-04T22:49:37;17.00;;;13.30;;
45548;SDS011;31270;48.328;10.096;2022-10-04T22:52:11;16.77;;;11.27;;
45548;SDS011;31270;48.328;10.096;2022-10-04T22:54:40;12.87;;;10.43;;
45548;SDS011;31270;48.328;10.096;2022-10-04T22:57:08;19.53;;;10.57;;
45548;SDS011;31270;48.328;10.096;2022-10-04T22:59:42;14.87;;;10.90;;
45548;SDS011;31270;48.328;10.096;2022-10-04T23:02:13;14.37;;;9.97;;
45548;SDS011;31270;48.328;10.096;2022-10-04T23:04:56;15.77;;;9.80;;
45548;SDS011;31270;48.328;10.096;2022-10-04T23:07:25;14.17;;;9.90;;
45548;SDS011;31270;48.328;10.096;2022-10-04T23:09:50;15.30;;;10.53;;
45548;SDS011;31270;48.328;10.096;2022-10-04T23:12:16;15.70;;;10.63;;
45548;SDS011;31270;48.328;10.096;2022-10-04T23:14:42;16.80;;;10.57;;
45548;SDS011;31270;48.328;10.096;2022-10-04T23:17:16;16.93;;;9.87;;
45548;SDS011;31270;48.328;10.096;2022-10-04T23:19:53;13.13;;;9.17;;
45548;SDS011;31270;48.328;10.096;2022-10-04T23:22:21;17.90;;;9.13;;
45548;SDS011;31270;48.328;10.096;2022-10-04T23:24:51;14.47;;;9.83;;
45548;SDS011;31270;48.328;10.096;2022-10-04T23:27:18;14.70;;;10.13;;
45548;SDS011;31270;48.328;10.096;2022-10-04T23:29:44;16.03;;;10.23;;
45548;SDS011;31270;48.328;10.096;2022-10-04T23:32:15;17.13;;;10.63;;
45548;SDS011;31270;48.328;10.096;2022-10-04T23:34:43;14.33;;;11.30;;
45548;SDS011;31270;48.328;10.096;2022-10-04T23:37:18;19.43;;;12.90;;
45548;SDS011;31270;48.328;10.096;2022-10-04T23:39:46;17.77;;;12.67;;
45548;SDS011;31270;48.328;10.096;2022-10-04T23:42:15;17.97;;;12.27;;
45548;SDS011;31270;48.328;10.096;2022-10-04T23:44:43;22.27;;;15.93;;
45548;SDS011;31270;48.328;10.096;2022-10-04T23:47:11;21.17;;;15.30;;
45548;SDS011;31270;48.328;10.096;2022-10-04T23:49:39;29.00;;;16.77;;
45548;SDS011;31270;48.328;10.096;2022-10-04T23:52:07;25.43;;;15.57;;
45548;SDS011;31270;48.328;10.096;2022-10-04T23:54:38;22.70;;;15.70;;
45548;SDS011;31270;48.328;10.096;2022-10-04T23:57:04;22.97;;;16.87;;
45548;SDS011;31270;48.328;10.096;2022-10-04T23:59:33;26.47;;;17.93;;
